sensor_id;sensor_type;location;lat;lon;timestamp;P1;durP1;ratioP1;P2;durP2;ratioP2
30408;SDS011;17207;52.960;5.916;2022-11-15T00:02:22;8.40;;;6.80;;
30408;SDS011;17207;52.960;5.916;2022-11-15T00:04:48;8.60;;;6.97;;
30408;SDS011;17207;52.960;5.916;2022-11-15T00:07:14;7.03;;;6.15;;
30408;SDS011;17207;52.960;5.916;2022-11-15T00:09:40;8.13;;;6.95;;
30408;SDS011;17207;52.960;5.916;2022-11-15T00:12:06;8.25;;;6.63;;
30408;SDS011;17207;52.960;5.916;2022-11-15T00:14:32;8.52;;;6.50;;
30408;SDS011;17207;52.960;5.916;2022-11-15T00:16:58;7.78;;;6.70;;
30408;SDS011;17207;52.960;5.916;2022-11-15T00:19:24;6.55;;;5.85;;
30408;SDS011;17207;52.960;5.916;2022-11-15T00:21:50;8.00;;;7.00;;
30408;SDS011;17207;52.960;5.916;2022-11-15T00:24:16;8.52;;;7.20;;
30408;SDS011;17207;52.960;5.916;2022-11-15T00:26:42;9.13;;;6.38;;
30408;SDS011;17207;52.960;5.916;2022-11-15T00:29:08;6.75;;;6.05;;
30408;SDS011;17207;52.960;5.916;2022-11-15T00:31:34;7.20;;;6.38;;
30408;SDS011;17207;52.960;5.916;2022-11-15T00:34:00;7.53;;;6.40;;
30408;SDS011;17207;52.960;5.916;2022-11-15T00:36:26;8.23;;;6.50;;
30408;SDS011;17207;52.960;5.916;2022-11-15T00:38:52;7.68;;;6.65;;
30408;SDS011;17207;52.960;5.916;2022-11-15T00:41:18;7.53;;;6.45;;
30408;SDS011;17207;52.960;5.916;2022-11-15T00:43:44;7.20;;;6.50;;
30408;SDS011;17207;52.960;5.916;2022-11-15T00:46:10;7.20;;;6.10;;
30408;SDS011;17207;52.960;5.916;2022-11-15T00:48:36;6.80;;;5.78;;
30408;SDS011;17207;52.960;5.916;2022-11-15T00:51:02;7.65;;;6.70;;
30408;SDS011;17207;52.960;5.916;2022-11-15T00:53:28;8.88;;;6.68;;
30408;SDS011;17207;52.960;5.916;2022-11-15T00:55:54;7.53;;;6.30;;
30408;SDS011;17207;52.960;5.916;2022-11-15T00:58:20;7.30;;;6.32;;
30408;SDS011;17207;52.960;5.916;2022-11-15T01:00:46;7.05;;;6.03;;
30408;SDS011;17207;52.960;5.916;2022-11-15T01:03:12;8.55;;;6.65;;
30408;SDS011;17207;52.960;5.916;2022-11-15T01:05:38;7.32;;;6.38;;
30408;SDS011;17207;52.960;5.916;2022-11-15T01:08:05;7.57;;;6.40;;
30408;SDS011;17207;52.960;5.916;2022-11-15T01:10:31;7.22;;;6.53;;
30408;SDS011;17207;52.960;5.916;2022-11-15T01:12:57;6.97;;;5.95;;
30408;SDS011;17207;52.960;5.916;2022-11-15T01:15:23;7.43;;;6.35;;
30408;SDS011;17207;52.960;5.916;2022-11-15T01:17:49;8.80;;;6.75;;
30408;SDS011;17207;52.960;5.916;2022-11-15T01:20:15;8.38;;;6.85;;
30408;SDS011;17207;52.960;5.916;2022-11-15T01:22:41;8.23;;;6.82;;
30408;SDS011;17207;52.960;5.916;2022-11-15T01:25:07;8.75;;;6.85;;
30408;SDS011;17207;52.960;5.916;2022-11-15T01:27:33;7.45;;;6.72;;
30408;SDS011;17207;52.960;5.916;2022-11-15T01:29:59;8.73;;;7.05;;
30408;SDS011;17207;52.960;5.916;2022-11-15T01:32:25;7.55;;;6.53;;
30408;SDS011;17207;52.960;5.916;2022-11-15T01:34:51;8.52;;;6.72;;
30408;SDS011;17207;52.960;5.916;2022-11-15T01:37:17;7.00;;;6.18;;
30408;SDS011;17207;52.960;5.916;2022-11-15T01:39:43;7.60;;;6.55;;
30408;SDS011;17207;52.960;5.916;2022-11-15T01:42:12;6.97;;;6.20;;
30408;SDS011;17207;52.960;5.916;2022-11-15T01:47:09;7.50;;;6.57;;
30408;SDS011;17207;52.960;5.916;2022-11-15T01:49:37;7.32;;;6.55;;
30408;SDS011;17207;52.960;5.916;2022-11-15T01:52:04;6.93;;;6.15;;
30408;SDS011;17207;52.960;5.916;2022-11-15T01:54:30;7.30;;;6.10;;
30408;SDS011;17207;52.960;5.916;2022-11-15T01:57:01;8.82;;;6.95;;
30408;SDS011;17207;52.960;5.916;2022-11-15T01:59:29;7.57;;;6.43;;
30408;SDS011;17207;52.960;5.916;2022-11-15T02:01:56;6.88;;;5.90;;
30408;SDS011;17207;52.960;5.916;2022-11-15T02:04:31;7.80;;;6.40;;
30408;SDS011;17207;52.960;5.916;2022-11-15T02:06:58;8.20;;;6.78;;
30408;SDS011;17207;52.960;5.916;2022-11-15T02:09:24;7.57;;;6.25;;
30408;SDS011;17207;52.960;5.916;2022-11-15T02:11:50;7.18;;;6.47;;
30408;SDS011;17207;52.960;5.916;2022-11-15T02:14:17;6.93;;;6.13;;
30408;SDS011;17207;52.960;5.916;2022-11-15T02:21:51;8.38;;;7.05;;
30408;SDS011;17207;52.960;5.916;2022-11-15T02:32:24;7.75;;;6.28;;
30408;SDS011;17207;52.960;5.916;2022-11-15T02:40:19;7.43;;;6.43;;
30408;SDS011;17207;52.960;5.916;2022-11-15T02:42:50;7.13;;;6.25;;
30408;SDS011;17207;52.960;5.916;2022-11-15T02:45:36;7.60;;;5.95;;
30408;SDS011;17207;52.960;5.916;2022-11-15T02:48:03;9.15;;;5.93;;
30408;SDS011;17207;52.960;5.916;2022-11-15T02:50:31;7.75;;;6.53;;
30408;SDS011;17207;52.960;5.916;2022-11-15T02:52:58;8.82;;;6.13;;
30408;SDS011;17207;52.960;5.916;2022-11-15T02:55:26;9.45;;;6.90;;
30408;SDS011;17207;52.960;5.916;2022-11-15T02:57:52;8.32;;;6.20;;
30408;SDS011;17207;52.960;5.916;2022-11-15T03:00:21;8.27;;;6.32;;
30408;SDS011;17207;52.960;5.916;2022-11-15T03:08:11;8.05;;;6.60;;
30408;SDS011;17207;52.960;5.916;2022-11-15T03:15:38;7.05;;;6.30;;
30408;SDS011;17207;52.960;5.916;2022-11-15T03:18:14;7.50;;;6.03;;
30408;SDS011;17207;52.960;5.916;2022-11-15T03:20:43;7.32;;;6.28;;
30408;SDS011;17207;52.960;5.916;2022-11-15T03:23:10;8.68;;;6.78;;
30408;SDS011;17207;52.960;5.916;2022-11-15T03:25:38;10.18;;;6.97;;
30408;SDS011;17207;52.960;5.916;2022-11-15T03:28:06;7.18;;;6.18;;
30408;SDS011;17207;52.960;5.916;2022-11-15T03:30:33;8.20;;;6.07;;
30408;SDS011;17207;52.960;5.916;2022-11-15T03:33:01;8.40;;;5.85;;
30408;SDS011;17207;52.960;5.916;2022-11-15T03:35:29;8.88;;;6.78;;
30408;SDS011;17207;52.960;5.916;2022-11-15T03:38:11;9.45;;;6.80;;
30408;SDS011;17207;52.960;5.916;2022-11-15T03:40:42;9.00;;;6.82;;
30408;SDS011;17207;52.960;5.916;2022-11-15T03:45:48;9.13;;;7.03;;
30408;SDS011;17207;52.960;5.916;2022-11-15T03:48:18;8.10;;;6.50;;
30408;SDS011;17207;52.960;5.916;2022-11-15T03:50:45;8.43;;;6.88;;
30408;SDS011;17207;52.960;5.916;2022-11-15T03:53:12;9.85;;;7.30;;
30408;SDS011;17207;52.960;5.916;2022-11-15T03:55:38;9.40;;;6.70;;
30408;SDS011;17207;52.960;5.916;2022-11-15T03:58:04;8.65;;;6.60;;
30408;SDS011;17207;52.960;5.916;2022-11-15T04:00:31;9.70;;;6.53;;
30408;SDS011;17207;52.960;5.916;2022-11-15T04:02:57;7.95;;;6.35;;
30408;SDS011;17207;52.960;5.916;2022-11-15T04:05:23;10.45;;;6.75;;
30408;SDS011;17207;52.960;5.916;2022-11-15T04:07:50;8.90;;;6.55;;
30408;SDS011;17207;52.960;5.916;2022-11-15T04:10:16;9.85;;;7.05;;
30408;SDS011;17207;52.960;5.916;2022-11-15T04:12:43;8.98;;;6.72;;
30408;SDS011;17207;52.960;5.916;2022-11-15T04:15:15;7.63;;;6.18;;
30408;SDS011;17207;52.960;5.916;2022-11-15T04:17:49;10.25;;;6.95;;
30408;SDS011;17207;52.960;5.916;2022-11-15T04:20:16;8.50;;;6.38;;
30408;SDS011;17207;52.960;5.916;2022-11-15T04:23:03;8.20;;;6.57;;
30408;SDS011;17207;52.960;5.916;2022-11-15T04:25:52;9.17;;;6.77;;
30408;SDS011;17207;52.960;5.916;2022-11-15T04:28:18;9.60;;;6.18;;
30408;SDS011;17207;52.960;5.916;2022-11-15T04:30:45;7.82;;;6.40;;
30408;SDS011;17207;52.960;5.916;2022-11-15T04:33:11;9.00;;;6.45;;
30408;SDS011;17207;52.960;5.916;2022-11-15T04:35:37;8.90;;;6.63;;
30408;SDS011;17207;52.960;5.916;2022-11-15T04:38:03;8.45;;;5.80;;
30408;SDS011;17207;52.960;5.916;2022-11-15T04:40:30;8.73;;;6.05;;
30408;SDS011;17207;52.960;5.916;2022-11-15T04:42:56;9.02;;;6.60;;
30408;SDS011;17207;52.960;5.916;2022-11-15T04:45:22;8.98;;;6.55;;
30408;SDS011;17207;52.960;5.916;2022-11-15T04:47:48;8.35;;;6.43;;
30408;SDS011;17207;52.960;5.916;2022-11-15T04:50:14;9.75;;;6.53;;
30408;SDS011;17207;52.960;5.916;2022-11-15T04:52:41;8.10;;;6.78;;
30408;SDS011;17207;52.960;5.916;2022-11-15T04:55:08;7.95;;;6.20;;
30408;SDS011;17207;52.960;5.916;2022-11-15T04:57:34;8.63;;;6.47;;
30408;SDS011;17207;52.960;5.916;2022-11-15T05:00:01;10.27;;;6.57;;
30408;SDS011;17207;52.960;5.916;2022-11-15T05:02:27;9.65;;;6.68;;
30408;SDS011;17207;52.960;5.916;2022-11-15T05:05:13;8.98;;;6.47;;
30408;SDS011;17207;52.960;5.916;2022-11-15T05:07:39;7.55;;;6.05;;
30408;SDS011;17207;52.960;5.916;2022-11-15T05:10:05;8.68;;;5.90;;
30408;SDS011;17207;52.960;5.916;2022-11-15T05:12:31;8.63;;;6.53;;
30408;SDS011;17207;52.960;5.916;2022-11-15T05:14:57;8.77;;;6.88;;
30408;SDS011;17207;52.960;5.916;2022-11-15T05:17:23;9.18;;;6.43;;
30408;SDS011;17207;52.960;5.916;2022-11-15T05:19:49;10.60;;;6.47;;
30408;SDS011;17207;52.960;5.916;2022-11-15T05:22:17;9.90;;;6.80;;
30408;SDS011;17207;52.960;5.916;2022-11-15T05:24:43;8.27;;;6.55;;
30408;SDS011;17207;52.960;5.916;2022-11-15T05:27:09;8.48;;;6.57;;
30408;SDS011;17207;52.960;5.916;2022-11-15T05:29:35;8.13;;;6.35;;
30408;SDS011;17207;52.960;5.916;2022-11-15T05:32:02;9.00;;;6.80;;
30408;SDS011;17207;52.960;5.916;2022-11-15T05:34:29;9.13;;;6.53;;
30408;SDS011;17207;52.960;5.916;2022-11-15T05:36:55;9.40;;;6.88;;
30408;SDS011;17207;52.960;5.916;2022-11-15T05:39:21;10.55;;;7.00;;
30408;SDS011;17207;52.960;5.916;2022-11-15T05:41:54;9.35;;;7.13;;
30408;SDS011;17207;52.960;5.916;2022-11-15T05:44:22;7.97;;;6.25;;
30408;SDS011;17207;52.960;5.916;2022-11-15T05:46:50;8.05;;;6.03;;
30408;SDS011;17207;52.960;5.916;2022-11-15T05:49:19;8.88;;;6.68;;
30408;SDS011;17207;52.960;5.916;2022-11-15T05:51:45;7.93;;;5.95;;
30408;SDS011;17207;52.960;5.916;2022-11-15T05:54:12;9.82;;;6.22;;
30408;SDS011;17207;52.960;5.916;2022-11-15T05:56:39;9.07;;;6.40;;
30408;SDS011;17207;52.960;5.916;2022-11-15T05:59:05;7.90;;;6.70;;
30408;SDS011;17207;52.960;5.916;2022-11-15T06:01:32;10.50;;;6.88;;
30408;SDS011;17207;52.960;5.916;2022-11-15T06:03:58;7.70;;;6.43;;
30408;SDS011;17207;52.960;5.916;2022-11-15T06:06:24;9.38;;;6.70;;
30408;SDS011;17207;52.960;5.916;2022-11-15T06:08:52;10.23;;;6.63;;
30408;SDS011;17207;52.960;5.916;2022-11-15T06:11:18;8.18;;;6.18;;
30408;SDS011;17207;52.960;5.916;2022-11-15T06:13:44;11.15;;;6.63;;
30408;SDS011;17207;52.960;5.916;2022-11-15T06:16:10;8.80;;;6.35;;
30408;SDS011;17207;52.960;5.916;2022-11-15T06:18:36;9.10;;;6.43;;
30408;SDS011;17207;52.960;5.916;2022-11-15T06:21:03;9.63;;;6.55;;
30408;SDS011;17207;52.960;5.916;2022-11-15T06:23:31;8.70;;;5.95;;
30408;SDS011;17207;52.960;5.916;2022-11-15T06:25:57;8.05;;;6.03;;
30408;SDS011;17207;52.960;5.916;2022-11-15T06:28:23;9.40;;;6.18;;
30408;SDS011;17207;52.960;5.916;2022-11-15T06:30:49;9.00;;;6.55;;
30408;SDS011;17207;52.960;5.916;2022-11-15T06:33:15;8.25;;;6.45;;
30408;SDS011;17207;52.960;5.916;2022-11-15T06:35:41;9.45;;;6.88;;
30408;SDS011;17207;52.960;5.916;2022-11-15T06:38:08;7.45;;;5.68;;
30408;SDS011;17207;52.960;5.916;2022-11-15T06:40:35;8.48;;;6.50;;
30408;SDS011;17207;52.960;5.916;2022-11-15T06:43:02;9.13;;;6.72;;
30408;SDS011;17207;52.960;5.916;2022-11-15T06:45:28;10.63;;;6.68;;
30408;SDS011;17207;52.960;5.916;2022-11-15T06:47:54;8.43;;;6.07;;
30408;SDS011;17207;52.960;5.916;2022-11-15T06:50:20;8.77;;;6.13;;
30408;SDS011;17207;52.960;5.916;2022-11-15T06:52:46;6.72;;;5.75;;
30408;SDS011;17207;52.960;5.916;2022-11-15T06:55:13;7.93;;;6.03;;
30408;SDS011;17207;52.960;5.916;2022-11-15T06:57:45;8.00;;;6.35;;
30408;SDS011;17207;52.960;5.916;2022-11-15T07:00:12;7.50;;;5.70;;
30408;SDS011;17207;52.960;5.916;2022-11-15T07:02:38;8.60;;;6.60;;
30408;SDS011;17207;52.960;5.916;2022-11-15T07:05:04;9.38;;;6.75;;
30408;SDS011;17207;52.960;5.916;2022-11-15T07:07:30;8.57;;;6.47;;
30408;SDS011;17207;52.960;5.916;2022-11-15T07:09:57;8.10;;;5.95;;
30408;SDS011;17207;52.960;5.916;2022-11-15T07:12:22;8.80;;;6.00;;
30408;SDS011;17207;52.960;5.916;2022-11-15T07:14:48;8.73;;;6.20;;
30408;SDS011;17207;52.960;5.916;2022-11-15T07:17:14;8.20;;;5.78;;
30408;SDS011;17207;52.960;5.916;2022-11-15T07:19:41;7.10;;;6.03;;
30408;SDS011;17207;52.960;5.916;2022-11-15T07:22:06;7.75;;;6.05;;
30408;SDS011;17207;52.960;5.916;2022-11-15T07:24:33;8.68;;;6.15;;
30408;SDS011;17207;52.960;5.916;2022-11-15T07:26:59;7.90;;;6.35;;
30408;SDS011;17207;52.960;5.916;2022-11-15T07:29:25;8.48;;;6.18;;
30408;SDS011;17207;52.960;5.916;2022-11-15T07:31:51;8.32;;;6.50;;
30408;SDS011;17207;52.960;5.916;2022-11-15T07:34:17;8.50;;;6.45;;
30408;SDS011;17207;52.960;5.916;2022-11-15T07:36:43;7.47;;;6.28;;
30408;SDS011;17207;52.960;5.916;2022-11-15T07:39:09;9.88;;;5.85;;
30408;SDS011;17207;52.960;5.916;2022-11-15T07:41:37;7.22;;;5.75;;
30408;SDS011;17207;52.960;5.916;2022-11-15T07:44:03;8.65;;;5.95;;
30408;SDS011;17207;52.960;5.916;2022-11-15T07:46:29;8.30;;;6.20;;
30408;SDS011;17207;52.960;5.916;2022-11-15T07:48:56;8.40;;;5.78;;
30408;SDS011;17207;52.960;5.916;2022-11-15T07:51:22;8.60;;;5.82;;
30408;SDS011;17207;52.960;5.916;2022-11-15T07:53:48;8.45;;;5.72;;
30408;SDS011;17207;52.960;5.916;2022-11-15T07:56:14;10.57;;;6.32;;
30408;SDS011;17207;52.960;5.916;2022-11-15T07:58:41;7.40;;;5.88;;
30408;SDS011;17207;52.960;5.916;2022-11-15T08:01:07;7.90;;;5.45;;
30408;SDS011;17207;52.960;5.916;2022-11-15T08:03:34;7.63;;;5.93;;
30408;SDS011;17207;52.960;5.916;2022-11-15T08:06:00;8.27;;;5.40;;
30408;SDS011;17207;52.960;5.916;2022-11-15T08:08:27;7.50;;;5.38;;
30408;SDS011;17207;52.960;5.916;2022-11-15T08:10:53;7.82;;;5.57;;
30408;SDS011;17207;52.960;5.916;2022-11-15T08:13:19;6.70;;;5.25;;
30408;SDS011;17207;52.960;5.916;2022-11-15T08:15:46;6.53;;;5.80;;
30408;SDS011;17207;52.960;5.916;2022-11-15T08:18:13;6.32;;;5.35;;
30408;SDS011;17207;52.960;5.916;2022-11-15T08:20:39;7.57;;;5.33;;
30408;SDS011;17207;52.960;5.916;2022-11-15T08:23:06;6.68;;;5.32;;
30408;SDS011;17207;52.960;5.916;2022-11-15T08:25:33;6.68;;;5.15;;
30408;SDS011;17207;52.960;5.916;2022-11-15T08:28:00;6.68;;;5.57;;
30408;SDS011;17207;52.960;5.916;2022-11-15T08:30:26;7.93;;;5.57;;
30408;SDS011;17207;52.960;5.916;2022-11-15T08:32:53;5.97;;;5.38;;
30408;SDS011;17207;52.960;5.916;2022-11-15T08:35:19;8.63;;;5.57;;
30408;SDS011;17207;52.960;5.916;2022-11-15T08:37:46;7.00;;;5.15;;
30408;SDS011;17207;52.960;5.916;2022-11-15T08:40:12;7.60;;;5.47;;
30408;SDS011;17207;52.960;5.916;2022-11-15T08:42:39;7.50;;;5.50;;
30408;SDS011;17207;52.960;5.916;2022-11-15T08:45:05;6.75;;;5.28;;
30408;SDS011;17207;52.960;5.916;2022-11-15T08:47:32;8.15;;;5.50;;
30408;SDS011;17207;52.960;5.916;2022-11-15T08:49:58;6.10;;;5.35;;
30408;SDS011;17207;52.960;5.916;2022-11-15T08:52:24;6.78;;;4.85;;
30408;SDS011;17207;52.960;5.916;2022-11-15T08:54:50;8.25;;;5.25;;
30408;SDS011;17207;52.960;5.916;2022-11-15T08:57:16;6.53;;;5.85;;
30408;SDS011;17207;52.960;5.916;2022-11-15T08:59:42;6.03;;;4.78;;
30408;SDS011;17207;52.960;5.916;2022-11-15T09:02:12;6.75;;;4.97;;
30408;SDS011;17207;52.960;5.916;2022-11-15T09:04:42;7.10;;;4.72;;
30408;SDS011;17207;52.960;5.916;2022-11-15T09:07:08;4.88;;;4.38;;
30408;SDS011;17207;52.960;5.916;2022-11-15T09:09:35;8.18;;;5.07;;
30408;SDS011;17207;52.960;5.916;2022-11-15T09:12:01;6.50;;;5.25;;
30408;SDS011;17207;52.960;5.916;2022-11-15T09:14:27;8.15;;;5.28;;
30408;SDS011;17207;52.960;5.916;2022-11-15T09:16:53;5.20;;;4.70;;
30408;SDS011;17207;52.960;5.916;2022-11-15T09:19:20;6.25;;;5.35;;
30408;SDS011;17207;52.960;5.916;2022-11-15T09:21:46;6.22;;;4.80;;
30408;SDS011;17207;52.960;5.916;2022-11-15T09:24:12;5.32;;;4.40;;
30408;SDS011;17207;52.960;5.916;2022-11-15T09:26:38;8.80;;;4.90;;
30408;SDS011;17207;52.960;5.916;2022-11-15T09:29:04;7.00;;;4.75;;
30408;SDS011;17207;52.960;5.916;2022-11-15T09:31:30;5.97;;;4.53;;
30408;SDS011;17207;52.960;5.916;2022-11-15T09:33:56;7.03;;;5.20;;
30408;SDS011;17207;52.960;5.916;2022-11-15T09:36:22;5.45;;;4.75;;
30408;SDS011;17207;52.960;5.916;2022-11-15T09:38:48;5.88;;;4.95;;
30408;SDS011;17207;52.960;5.916;2022-11-15T09:48:45;6.32;;;4.90;;
30408;SDS011;17207;52.960;5.916;2022-11-15T09:51:16;8.52;;;4.85;;
30408;SDS011;17207;52.960;5.916;2022-11-15T09:53:49;6.47;;;4.93;;
30408;SDS011;17207;52.960;5.916;2022-11-15T09:56:20;4.40;;;4.00;;
30408;SDS011;17207;52.960;5.916;2022-11-15T09:58:51;7.32;;;4.88;;
30408;SDS011;17207;52.960;5.916;2022-11-15T10:01:30;5.05;;;4.43;;
30408;SDS011;17207;52.960;5.916;2022-11-15T10:03:59;6.00;;;4.32;;
30408;SDS011;17207;52.960;5.916;2022-11-15T10:06:26;6.03;;;4.53;;
30408;SDS011;17207;52.960;5.916;2022-11-15T10:09:00;5.10;;;4.20;;
30408;SDS011;17207;52.960;5.916;2022-11-15T10:11:28;6.25;;;5.15;;
30408;SDS011;17207;52.960;5.916;2022-11-15T10:13:56;5.05;;;4.40;;
30408;SDS011;17207;52.960;5.916;2022-11-15T10:24:24;6.00;;;4.50;;
30408;SDS011;17207;52.960;5.916;2022-11-15T10:26:53;5.90;;;4.18;;
30408;SDS011;17207;52.960;5.916;2022-11-15T10:29:19;5.18;;;4.68;;
30408;SDS011;17207;52.960;5.916;2022-11-15T10:31:45;5.63;;;4.55;;
30408;SDS011;17207;52.960;5.916;2022-11-15T10:34:19;5.15;;;4.25;;
30408;SDS011;17207;52.960;5.916;2022-11-15T10:36:59;5.53;;;4.45;;
30408;SDS011;17207;52.960;5.916;2022-11-15T10:39:28;4.60;;;4.20;;
30408;SDS011;17207;52.960;5.916;2022-11-15T10:41:55;6.22;;;4.55;;
30408;SDS011;17207;52.960;5.916;2022-11-15T10:44:31;5.32;;;4.20;;
30408;SDS011;17207;52.960;5.916;2022-11-15T10:49:27;4.95;;;4.18;;
30408;SDS011;17207;52.960;5.916;2022-11-15T10:51:55;5.20;;;4.45;;
30408;SDS011;17207;52.960;5.916;2022-11-15T10:56:55;7.00;;;4.90;;
30408;SDS011;17207;52.960;5.916;2022-11-15T10:59:29;6.50;;;4.25;;
30408;SDS011;17207;52.960;5.916;2022-11-15T11:01:56;4.50;;;3.95;;
30408;SDS011;17207;52.960;5.916;2022-11-15T11:04:22;5.55;;;4.55;;
30408;SDS011;17207;52.960;5.916;2022-11-15T11:06:56;5.18;;;3.90;;
30408;SDS011;17207;52.960;5.916;2022-11-15T11:09:23;5.25;;;4.13;;
30408;SDS011;17207;52.960;5.916;2022-11-15T11:11:51;6.07;;;4.47;;
30408;SDS011;17207;52.960;5.916;2022-11-15T11:16:48;6.15;;;4.28;;
30408;SDS011;17207;52.960;5.916;2022-11-15T11:26:58;5.72;;;3.90;;
30408;SDS011;17207;52.960;5.916;2022-11-15T11:32:20;5.35;;;3.85;;
30408;SDS011;17207;52.960;5.916;2022-11-15T11:37:19;5.60;;;4.38;;
30408;SDS011;17207;52.960;5.916;2022-11-15T11:47:38;4.25;;;3.85;;
30408;SDS011;17207;52.960;5.916;2022-11-15T11:50:15;5.68;;;4.30;;
30408;SDS011;17207;52.960;5.916;2022-11-15T11:55:37;4.72;;;3.88;;
30408;SDS011;17207;52.960;5.916;2022-11-15T11:58:13;4.13;;;3.40;;
30408;SDS011;17207;52.960;5.916;2022-11-15T12:00:44;3.85;;;3.42;;
30408;SDS011;17207;52.960;5.916;2022-11-15T12:03:14;4.15;;;3.30;;
30408;SDS011;17207;52.960;5.916;2022-11-15T12:05:44;4.65;;;4.00;;
30408;SDS011;17207;52.960;5.916;2022-11-15T12:08:20;3.90;;;3.40;;
30408;SDS011;17207;52.960;5.916;2022-11-15T12:10:50;3.88;;;3.58;;
30408;SDS011;17207;52.960;5.916;2022-11-15T12:13:19;3.33;;;3.00;;
30408;SDS011;17207;52.960;5.916;2022-11-15T12:18:22;3.42;;;2.78;;
30408;SDS011;17207;52.960;5.916;2022-11-15T12:20:53;5.47;;;3.50;;
30408;SDS011;17207;52.960;5.916;2022-11-15T12:23:22;4.85;;;3.63;;
30408;SDS011;17207;52.960;5.916;2022-11-15T12:28:25;3.97;;;3.00;;
30408;SDS011;17207;52.960;5.916;2022-11-15T12:30:55;3.97;;;3.30;;
30408;SDS011;17207;52.960;5.916;2022-11-15T12:33:38;3.63;;;3.28;;
30408;SDS011;17207;52.960;5.916;2022-11-15T12:41:20;3.78;;;2.72;;
30408;SDS011;17207;52.960;5.916;2022-11-15T12:43:47;3.00;;;2.70;;
30408;SDS011;17207;52.960;5.916;2022-11-15T12:48:53;4.07;;;2.80;;
30408;SDS011;17207;52.960;5.916;2022-11-15T12:51:20;4.15;;;3.15;;
30408;SDS011;17207;52.960;5.916;2022-11-15T12:53:46;3.15;;;2.65;;
30408;SDS011;17207;52.960;5.916;2022-11-15T12:58:50;4.90;;;3.25;;
30408;SDS011;17207;52.960;5.916;2022-11-15T13:06:44;3.53;;;2.65;;
30408;SDS011;17207;52.960;5.916;2022-11-15T13:11:56;2.75;;;2.55;;
30408;SDS011;17207;52.960;5.916;2022-11-15T13:17:16;2.78;;;2.58;;
30408;SDS011;17207;52.960;5.916;2022-11-15T13:19:43;3.97;;;3.05;;
30408;SDS011;17207;52.960;5.916;2022-11-15T13:22:09;3.13;;;2.83;;
30408;SDS011;17207;52.960;5.916;2022-11-15T13:24:54;3.17;;;2.70;;
30408;SDS011;17207;52.960;5.916;2022-11-15T13:27:21;3.28;;;2.60;;
30408;SDS011;17207;52.960;5.916;2022-11-15T13:29:47;2.85;;;2.50;;
30408;SDS011;17207;52.960;5.916;2022-11-15T13:32:13;2.92;;;2.53;;
30408;SDS011;17207;52.960;5.916;2022-11-15T13:34:44;3.58;;;2.83;;
30408;SDS011;17207;52.960;5.916;2022-11-15T13:37:35;3.28;;;2.65;;
30408;SDS011;17207;52.960;5.916;2022-11-15T13:40:15;4.38;;;2.63;;
30408;SDS011;17207;52.960;5.916;2022-11-15T13:42:41;4.25;;;2.80;;
30408;SDS011;17207;52.960;5.916;2022-11-15T13:45:12;2.63;;;2.25;;
30408;SDS011;17207;52.960;5.916;2022-11-15T13:47:38;3.13;;;2.60;;
30408;SDS011;17207;52.960;5.916;2022-11-15T13:50:04;5.05;;;3.17;;
30408;SDS011;17207;52.960;5.916;2022-11-15T13:52:31;3.28;;;2.78;;
30408;SDS011;17207;52.960;5.916;2022-11-15T13:55:02;7.40;;;3.05;;
30408;SDS011;17207;52.960;5.916;2022-11-15T13:57:38;2.97;;;2.30;;
30408;SDS011;17207;52.960;5.916;2022-11-15T14:00:21;6.03;;;2.50;;
30408;SDS011;17207;52.960;5.916;2022-11-15T14:02:49;3.35;;;2.72;;
30408;SDS011;17207;52.960;5.916;2022-11-15T14:05:17;2.92;;;2.53;;
30408;SDS011;17207;52.960;5.916;2022-11-15T14:07:59;4.32;;;2.60;;
30408;SDS011;17207;52.960;5.916;2022-11-15T14:12:55;2.67;;;2.42;;
30408;SDS011;17207;52.960;5.916;2022-11-15T14:15:32;2.30;;;2.10;;
30408;SDS011;17207;52.960;5.916;2022-11-15T14:17:59;2.22;;;2.03;;
30408;SDS011;17207;52.960;5.916;2022-11-15T14:22:53;2.80;;;2.47;;
30408;SDS011;17207;52.960;5.916;2022-11-15T14:25:20;2.50;;;2.30;;
30408;SDS011;17207;52.960;5.916;2022-11-15T14:30:31;2.53;;;2.33;;
30408;SDS011;17207;52.960;5.916;2022-11-15T14:32:57;2.40;;;2.20;;
30408;SDS011;17207;52.960;5.916;2022-11-15T14:35:23;4.05;;;2.33;;
30408;SDS011;17207;52.960;5.916;2022-11-15T14:37:49;2.88;;;2.33;;
30408;SDS011;17207;52.960;5.916;2022-11-15T14:40:17;2.20;;;2.00;;
30408;SDS011;17207;52.960;5.916;2022-11-15T14:42:44;2.78;;;2.55;;
30408;SDS011;17207;52.960;5.916;2022-11-15T14:45:15;2.40;;;2.10;;
30408;SDS011;17207;52.960;5.916;2022-11-15T14:47:41;3.25;;;2.20;;
30408;SDS011;17207;52.960;5.916;2022-11-15T14:50:11;2.47;;;2.03;;
30408;SDS011;17207;52.960;5.916;2022-11-15T14:52:38;2.75;;;2.00;;
30408;SDS011;17207;52.960;5.916;2022-11-15T14:55:10;2.75;;;2.38;;
30408;SDS011;17207;52.960;5.916;2022-11-15T14:57:37;2.35;;;2.00;;
30408;SDS011;17207;52.960;5.916;2022-11-15T15:00:04;2.55;;;2.13;;
30408;SDS011;17207;52.960;5.916;2022-11-15T15:04:57;3.35;;;2.60;;
30408;SDS011;17207;52.960;5.916;2022-11-15T15:07:26;5.35;;;1.90;;
30408;SDS011;17207;52.960;5.916;2022-11-15T15:09:52;4.13;;;1.77;;
30408;SDS011;17207;52.960;5.916;2022-11-15T15:12:19;2.42;;;1.98;;
30408;SDS011;17207;52.960;5.916;2022-11-15T15:14:46;2.40;;;2.05;;
30408;SDS011;17207;52.960;5.916;2022-11-15T15:17:13;3.42;;;2.00;;
30408;SDS011;17207;52.960;5.916;2022-11-15T15:19:39;1.80;;;1.70;;
30408;SDS011;17207;52.960;5.916;2022-11-15T15:22:05;2.58;;;1.75;;
30408;SDS011;17207;52.960;5.916;2022-11-15T15:24:31;2.13;;;1.90;;
30408;SDS011;17207;52.960;5.916;2022-11-15T15:26:57;2.45;;;1.95;;
30408;SDS011;17207;52.960;5.916;2022-11-15T15:29:23;3.35;;;2.03;;
30408;SDS011;17207;52.960;5.916;2022-11-15T15:31:49;2.67;;;2.10;;
30408;SDS011;17207;52.960;5.916;2022-11-15T15:34:15;2.75;;;2.13;;
30408;SDS011;17207;52.960;5.916;2022-11-15T15:36:41;2.72;;;2.40;;
30408;SDS011;17207;52.960;5.916;2022-11-15T15:39:08;5.30;;;2.15;;
30408;SDS011;17207;52.960;5.916;2022-11-15T15:41:36;2.78;;;2.00;;
30408;SDS011;17207;52.960;5.916;2022-11-15T15:44:02;4.00;;;1.95;;
30408;SDS011;17207;52.960;5.916;2022-11-15T15:46:28;4.55;;;2.47;;
30408;SDS011;17207;52.960;5.916;2022-11-15T15:48:54;5.68;;;2.30;;
30408;SDS011;17207;52.960;5.916;2022-11-15T15:51:20;3.38;;;1.95;;
30408;SDS011;17207;52.960;5.916;2022-11-15T15:53:47;2.33;;;1.90;;
30408;SDS011;17207;52.960;5.916;2022-11-15T15:56:13;3.30;;;2.08;;
30408;SDS011;17207;52.960;5.916;2022-11-15T15:58:39;4.03;;;2.17;;
30408;SDS011;17207;52.960;5.916;2022-11-15T16:01:05;2.35;;;1.80;;
30408;SDS011;17207;52.960;5.916;2022-11-15T16:03:31;3.15;;;2.15;;
30408;SDS011;17207;52.960;5.916;2022-11-15T16:05:57;2.67;;;2.13;;
30408;SDS011;17207;52.960;5.916;2022-11-15T16:08:24;5.90;;;2.08;;
30408;SDS011;17207;52.960;5.916;2022-11-15T16:10:52;2.22;;;1.83;;
30408;SDS011;17207;52.960;5.916;2022-11-15T16:13:18;4.18;;;2.10;;
30408;SDS011;17207;52.960;5.916;2022-11-15T16:15:44;3.85;;;2.30;;
30408;SDS011;17207;52.960;5.916;2022-11-15T16:18:17;3.55;;;1.90;;
30408;SDS011;17207;52.960;5.916;2022-11-15T16:20:47;3.00;;;2.15;;
30408;SDS011;17207;52.960;5.916;2022-11-15T16:23:21;2.95;;;2.45;;
30408;SDS011;17207;52.960;5.916;2022-11-15T16:28:22;2.45;;;2.13;;
30408;SDS011;17207;52.960;5.916;2022-11-15T16:30:48;6.13;;;2.30;;
30408;SDS011;17207;52.960;5.916;2022-11-15T16:33:15;3.17;;;2.50;;
30408;SDS011;17207;52.960;5.916;2022-11-15T16:35:43;6.18;;;2.17;;
30408;SDS011;17207;52.960;5.916;2022-11-15T16:38:13;3.03;;;2.25;;
30408;SDS011;17207;52.960;5.916;2022-11-15T16:40:39;3.33;;;2.28;;
30408;SDS011;17207;52.960;5.916;2022-11-15T16:43:05;2.65;;;2.00;;
30408;SDS011;17207;52.960;5.916;2022-11-15T16:45:33;5.20;;;2.47;;
30408;SDS011;17207;52.960;5.916;2022-11-15T16:47:59;7.63;;;2.63;;
30408;SDS011;17207;52.960;5.916;2022-11-15T16:50:26;3.97;;;2.30;;
30408;SDS011;17207;52.960;5.916;2022-11-15T16:52:55;5.78;;;2.33;;